sensor_id;sensor_type;location;lat;lon;timestamp;P1;P2;P0
69205;PMS7003;56319;48.920;2.332;2023-03-14T00:00:20;0.00;0.00;0.00
69205;PMS7003;56319;48.920;2.332;2023-03-14T00:02:50;1.00;0.00;0.00
69205;PMS7003;56319;48.920;2.332;2023-03-14T00:05:18;0.50;0.00;0.00
69205;PMS7003;56319;48.920;2.332;2023-03-14T00:07:44;0.25;0.00;0.00
69205;PMS7003;56319;48.920;2.332;2023-03-14T00:10:10;0.00;0.00;0.00
69205;PMS7003;56319;48.920;2.332;2023-03-14T00:12:39;0.00;0.00;0.00
69205;PMS7003;56319;48.920;2.332;2023-03-14T00:15:05;0.75;0.00;0.00
69205;PMS7003;56319;48.920;2.332;2023-03-14T00:17:32;0.00;0.00;0.00
69205;PMS7003;56319;48.920;2.332;2023-03-14T00:19:59;1.00;0.00;0.00
69205;PMS7003;56319;48.920;2.332;2023-03-14T00:22:30;1.00;0.00;0.00
69205;PMS7003;56319;48.920;2.332;2023-03-14T00:24:56;0.00;0.00;0.00
69205;PMS7003;56319;48.920;2.332;2023-03-14T00:27:22;0.00;0.00;0.00
69205;PMS7003;56319;48.920;2.332;2023-03-14T00:29:48;0.00;0.00;0.00
69205;PMS7003;56319;48.920;2.332;2023-03-14T00:32:13;0.75;0.00;0.00
69205;PMS7003;56319;48.920;2.332;2023-03-14T00:34:39;0.00;0.00;0.00
69205;PMS7003;56319;48.920;2.332;2023-03-14T00:37:05;0.00;0.00;0.00
69205;PMS7003;56319;48.920;2.332;2023-03-14T00:39:31;0.00;0.00;0.00
69205;PMS7003;56319;48.920;2.332;2023-03-14T00:41:56;0.00;0.00;0.00
69205;PMS7003;56319;48.920;2.332;2023-03-14T00:44:22;0.00;0.00;0.00
69205;PMS7003;56319;48.920;2.332;2023-03-14T00:46:47;0.00;0.00;0.00
69205;PMS7003;56319;48.920;2.332;2023-03-14T00:49:13;1.00;0.00;0.00
69205;PMS7003;56319;48.920;2.332;2023-03-14T00:51:38;0.00;0.00;0.00
69205;PMS7003;56319;48.920;2.332;2023-03-14T00:54:04;0.00;0.00;0.00
69205;PMS7003;56319;48.920;2.332;2023-03-14T00:56:30;0.75;0.00;0.00
69205;PMS7003;56319;48.920;2.332;2023-03-14T00:58:56;0.00;0.00;0.00
69205;PMS7003;56319;48.920;2.332;2023-03-14T01:01:22;1.00;1.00;0.00
69205;PMS7003;56319;48.920;2.332;2023-03-14T01:03:50;1.75;0.00;0.00
69205;PMS7003;56319;48.920;2.332;2023-03-14T01:06:18;0.00;0.00;0.00
69205;PMS7003;56319;48.920;2.332;2023-03-14T01:08:45;0.00;0.00;0.00
69205;PMS7003;56319;48.920;2.332;2023-03-14T01:11:13;1.00;0.00;0.00
69205;PMS7003;56319;48.920;2.332;2023-03-14T01:13:41;0.00;0.00;0.00
69205;PMS7003;56319;48.920;2.332;2023-03-14T01:16:08;1.00;0.00;0.00
69205;PMS7003;56319;48.920;2.332;2023-03-14T01:18:35;0.00;0.00;0.00
69205;PMS7003;56319;48.920;2.332;2023-03-14T01:21:02;0.00;0.00;0.00
69205;PMS7003;56319;48.920;2.332;2023-03-14T01:23:29;0.00;0.00;0.00
69205;PMS7003;56319;48.920;2.332;2023-03-14T01:25:54;0.00;0.00;0.00
69205;PMS7003;56319;48.920;2.332;2023-03-14T01:28:20;0.00;0.00;0.00
69205;PMS7003;56319;48.920;2.332;2023-03-14T01:30:45;0.75;0.00;0.00
69205;PMS7003;56319;48.920;2.332;2023-03-14T01:33:11;0.00;0.00;0.00
69205;PMS7003;56319;48.920;2.332;2023-03-14T01:35:38;0.00;0.00;0.00
69205;PMS7003;56319;48.920;2.332;2023-03-14T01:38:03;1.00;0.00;0.00
69205;PMS7003;56319;48.920;2.332;2023-03-14T01:40:29;0.00;0.00;0.00
69205;PMS7003;56319;48.920;2.332;2023-03-14T01:42:55;0.00;0.00;0.00
69205;PMS7003;56319;48.920;2.332;2023-03-14T01:48:28;0.00;0.00;0.00
69205;PMS7003;56319;48.920;2.332;2023-03-14T01:50:59;0.00;0.00;0.00
69205;PMS7003;56319;48.920;2.332;2023-03-14T01:53:26;1.00;0.00;0.00
69205;PMS7003;56319;48.920;2.332;2023-03-14T01:55:53;0.00;0.00;0.00
69205;PMS7003;56319;48.920;2.332;2023-03-14T01:58:21;0.00;0.00;0.00
69205;PMS7003;56319;48.920;2.332;2023-03-14T02:00:50;2.00;0.00;0.00
69205;PMS7003;56319;48.920;2.332;2023-03-14T02:03:16;0.00;0.00;0.00
69205;PMS7003;56319;48.920;2.332;2023-03-14T02:05:46;0.00;0.00;0.00
69205;PMS7003;56319;48.920;2.332;2023-03-14T02:08:14;0.00;0.00;0.00
69205;PMS7003;56319;48.920;2.332;2023-03-14T02:10:43;0.00;0.00;0.00
69205;PMS7003;56319;48.920;2.332;2023-03-14T02:13:12;0.00;0.00;0.00
69205;PMS7003;56319;48.920;2.332;2023-03-14T02:15:39;0.00;0.00;0.00
69205;PMS7003;56319;48.920;2.332;2023-03-14T02:18:05;0.00;0.00;0.00
69205;PMS7003;56319;48.920;2.332;2023-03-14T02:26:27;1.00;0.00;0.00
69205;PMS7003;56319;48.920;2.332;2023-03-14T02:29:16;0.00;0.00;0.00
69205;PMS7003;56319;48.920;2.332;2023-03-14T02:31:42;0.00;0.00;0.00
69205;PMS7003;56319;48.920;2.332;2023-03-14T02:34:08;0.00;0.00;0.00
69205;PMS7003;56319;48.920;2.332;2023-03-14T02:36:33;0.00;0.00;0.00
69205;PMS7003;56319;48.920;2.332;2023-03-14T02:41:49;0.00;0.00;0.00
69205;PMS7003;56319;48.920;2.332;2023-03-14T02:44:15;0.00;0.00;0.00
69205;PMS7003;56319;48.920;2.332;2023-03-14T02:46:40;0.00;0.00;0.00
69205;PMS7003;56319;48.920;2.332;2023-03-14T02:49:07;1.00;0.00;0.00
69205;PMS7003;56319;48.920;2.332;2023-03-14T02:51:35;0.00;0.00;0.00
69205;PMS7003;56319;48.920;2.332;2023-03-14T02:54:01;0.00;0.00;0.00
69205;PMS7003;56319;48.920;2.332;2023-03-14T02:56:28;0.00;0.00;0.00
69205;PMS7003;56319;48.920;2.332;2023-03-14T02:58:54;0.00;0.00;0.00
69205;PMS7003;56319;48.920;2.332;2023-03-14T03:01:19;0.00;0.00;0.00
69205;PMS7003;56319;48.920;2.332;2023-03-14T03:03:45;0.00;0.00;0.00
69205;PMS7003;56319;48.920;2.332;2023-03-14T03:06:10;0.00;0.00;0.00
69205;PMS7003;56319;48.920;2.332;2023-03-14T03:08:36;0.00;0.00;0.00
69205;PMS7003;56319;48.920;2.332;2023-03-14T03:11:02;0.00;0.00;0.00
69205;PMS7003;56319;48.920;2.332;2023-03-14T03:13:28;0.00;0.00;0.00
69205;PMS7003;56319;48.920;2.332;2023-03-14T03:15:54;0.00;0.00;0.00
69205;PMS7003;56319;48.920;2.332;2023-03-14T03:18:19;0.00;0.00;0.00
69205;PMS7003;56319;48.920;2.332;2023-03-14T03:20:45;1.00;0.00;0.00
69205;PMS7003;56319;48.920;2.332;2023-03-14T03:23:11;0.00;0.00;0.00
69205;PMS7003;56319;48.920;2.332;2023-03-14T03:25:37;0.00;0.00;0.00
69205;PMS7003;56319;48.920;2.332;2023-03-14T03:28:02;0.00;0.00;0.00
69205;PMS7003;56319;48.920;2.332;2023-03-14T03:30:33;0.00;0.00;0.00
69205;PMS7003;56319;48.920;2.332;2023-03-14T03:33:03;0.00;0.00;0.00
69205;PMS7003;56319;48.920;2.332;2023-03-14T03:35:28;0.00;0.00;0.00
69205;PMS7003;56319;48.920;2.332;2023-03-14T03:37:54;0.00;0.00;0.00
69205;PMS7003;56319;48.920;2.332;2023-03-14T03:40:19;0.00;0.00;0.00
69205;PMS7003;56319;48.920;2.332;2023-03-14T03:42:45;0.00;0.00;0.00
69205;PMS7003;56319;48.920;2.332;2023-03-14T03:45:11;0.25;0.00;0.00
69205;PMS7003;56319;48.920;2.332;2023-03-14T03:47:37;0.00;0.00;0.00
69205;PMS7003;56319;48.920;2.332;2023-03-14T03:50:02;0.00;0.00;0.00
69205;PMS7003;56319;48.920;2.332;2023-03-14T03:52:28;0.00;0.00;0.00
69205;PMS7003;56319;48.920;2.332;2023-03-14T03:54:54;0.25;0.00;0.00
69205;PMS7003;56319;48.920;2.332;2023-03-14T03:57:19;0.00;0.00;0.00
69205;PMS7003;56319;48.920;2.332;2023-03-14T03:59:45;0.00;0.00;0.00
69205;PMS7003;56319;48.920;2.332;2023-03-14T04:02:10;0.00;0.00;0.00
69205;PMS7003;56319;48.920;2.332;2023-03-14T04:04:36;1.00;0.00;0.00
69205;PMS7003;56319;48.920;2.332;2023-03-14T04:07:03;0.00;0.00;0.00
69205;PMS7003;56319;48.920;2.332;2023-03-14T04:09:29;0.00;0.00;0.00
69205;PMS7003;56319;48.920;2.332;2023-03-14T04:11:55;0.00;0.00;0.00
69205;PMS7003;56319;48.920;2.332;2023-03-14T04:14:21;0.00;0.00;0.00
69205;PMS7003;56319;48.920;2.332;2023-03-14T04:16:47;0.00;0.00;0.00
69205;PMS7003;56319;48.920;2.332;2023-03-14T04:19:13;0.00;0.00;0.00
69205;PMS7003;56319;48.920;2.332;2023-03-14T04:21:38;0.00;0.00;0.00
69205;PMS7003;56319;48.920;2.332;2023-03-14T04:24:08;0.00;0.00;0.00
69205;PMS7003;56319;48.920;2.332;2023-03-14T04:26:34;0.00;0.00;0.00
69205;PMS7003;56319;48.920;2.332;2023-03-14T04:28:59;0.00;0.00;0.00
69205;PMS7003;56319;48.920;2.332;2023-03-14T04:31:25;0.00;0.00;0.00
69205;PMS7003;56319;48.920;2.332;2023-03-14T04:33:50;0.00;0.00;0.00
69205;PMS7003;56319;48.920;2.332;2023-03-14T04:36:16;0.00;0.00;0.00
69205;PMS7003;56319;48.920;2.332;2023-03-14T04:38:41;0.00;0.00;0.00
69205;PMS7003;56319;48.920;2.332;2023-03-14T04:41:07;0.00;0.00;0.00
69205;PMS7003;56319;48.920;2.332;2023-03-14T04:43:33;0.00;0.00;0.00
69205;PMS7003;56319;48.920;2.332;2023-03-14T04:45:58;0.00;0.00;0.00
69205;PMS7003;56319;48.920;2.332;2023-03-14T04:48:24;0.00;0.00;0.00
69205;PMS7003;56319;48.920;2.332;2023-03-14T04:50:51;0.00;0.00;0.00
69205;PMS7003;56319;48.920;2.332;2023-03-14T04:53:17;0.00;0.00;0.00
69205;PMS7003;56319;48.920;2.332;2023-03-14T04:55:47;0.00;0.00;0.00
69205;PMS7003;56319;48.920;2.332;2023-03-14T04:58:13;0.00;0.00;0.00
69205;PMS7003;56319;48.920;2.332;2023-03-14T05:00:39;1.00;0.00;0.00
69205;PMS7003;56319;48.920;2.332;2023-03-14T05:03:05;0.00;0.00;0.00
69205;PMS7003;56319;48.920;2.332;2023-03-14T05:05:30;0.00;0.00;0.00
69205;PMS7003;56319;48.920;2.332;2023-03-14T05:07:55;0.00;0.00;0.00
69205;PMS7003;56319;48.920;2.332;2023-03-14T05:10:21;0.00;0.00;0.00
69205;PMS7003;56319;48.920;2.332;2023-03-14T05:12:46;0.00;0.00;0.00
69205;PMS7003;56319;48.920;2.332;2023-03-14T05:15:12;0.00;0.00;0.00
69205;PMS7003;56319;48.920;2.332;2023-03-14T05:17:37;0.00;0.00;0.00
69205;PMS7003;56319;48.920;2.332;2023-03-14T05:20:03;0.00;0.00;0.00
69205;PMS7003;56319;48.920;2.332;2023-03-14T05:22:49;0.00;0.00;0.00
69205;PMS7003;56319;48.920;2.332;2023-03-14T05:25:14;2.00;0.00;0.00
69205;PMS7003;56319;48.920;2.332;2023-03-14T05:27:40;0.00;0.00;0.00
69205;PMS7003;56319;48.920;2.332;2023-03-14T05:30:05;0.25;0.00;0.00
69205;PMS7003;56319;48.920;2.332;2023-03-14T05:32:32;0.00;0.00;0.00
69205;PMS7003;56319;48.920;2.332;2023-03-14T05:34:57;0.00;0.00;0.00
69205;PMS7003;56319;48.920;2.332;2023-03-14T05:37:25;0.00;0.00;0.00
69205;PMS7003;56319;48.920;2.332;2023-03-14T05:39:51;1.00;0.00;0.00
69205;PMS7003;56319;48.920;2.332;2023-03-14T05:42:17;0.00;0.00;0.00
69205;PMS7003;56319;48.920;2.332;2023-03-14T05:44:43;0.00;0.00;0.00
69205;PMS7003;56319;48.920;2.332;2023-03-14T05:47:08;1.00;0.00;0.00
69205;PMS7003;56319;48.920;2.332;2023-03-14T05:49:34;0.00;0.00;0.00
69205;PMS7003;56319;48.920;2.332;2023-03-14T05:52:00;0.00;0.00;0.00
69205;PMS7003;56319;48.920;2.332;2023-03-14T05:54:25;0.00;0.00;0.00
69205;PMS7003;56319;48.920;2.332;2023-03-14T05:56:51;0.00;0.00;0.00
69205;PMS7003;56319;48.920;2.332;2023-03-14T05:59:16;0.00;0.00;0.00
69205;PMS7003;56319;48.920;2.332;2023-03-14T06:01:42;1.00;0.00;0.00
69205;PMS7003;56319;48.920;2.332;2023-03-14T06:04:07;0.25;0.00;0.00
69205;PMS7003;56319;48.920;2.332;2023-03-14T06:06:33;0.00;0.00;0.00
69205;PMS7003;56319;48.920;2.332;2023-03-14T06:08:58;0.00;0.00;0.00
69205;PMS7003;56319;48.920;2.332;2023-03-14T06:11:24;0.00;0.00;0.00
69205;PMS7003;56319;48.920;2.332;2023-03-14T06:13:50;0.00;0.00;0.00
69205;PMS7003;56319;48.920;2.332;2023-03-14T06:16:16;0.00;0.00;0.00
69205;PMS7003;56319;48.920;2.332;2023-03-14T06:18:42;0.00;0.00;0.00
69205;PMS7003;56319;48.920;2.332;2023-03-14T06:21:07;0.00;0.00;0.00
69205;PMS7003;56319;48.920;2.332;2023-03-14T06:23:33;0.00;0.00;0.00
69205;PMS7003;56319;48.920;2.332;2023-03-14T06:25:59;1.25;0.00;0.00
69205;PMS7003;56319;48.920;2.332;2023-03-14T06:28:24;0.00;0.00;0.00
69205;PMS7003;56319;48.920;2.332;2023-03-14T06:30:50;0.00;0.00;0.00
69205;PMS7003;56319;48.920;2.332;2023-03-14T06:33:15;0.00;0.00;0.00
69205;PMS7003;56319;48.920;2.332;2023-03-14T06:35:41;0.00;0.00;0.00
69205;PMS7003;56319;48.920;2.332;2023-03-14T06:38:06;0.00;0.00;0.00
69205;PMS7003;56319;48.920;2.332;2023-03-14T06:40:32;0.00;0.00;0.00
69205;PMS7003;56319;48.920;2.332;2023-03-14T06:42:57;0.00;0.00;0.00
69205;PMS7003;56319;48.920;2.332;2023-03-14T06:45:23;0.00;0.00;0.00
69205;PMS7003;56319;48.920;2.332;2023-03-14T06:47:48;2.00;0.00;0.00
69205;PMS7003;56319;48.920;2.332;2023-03-14T06:50:14;0.00;0.00;0.00
69205;PMS7003;56319;48.920;2.332;2023-03-14T06:52:40;1.50;0.00;0.00
69205;PMS7003;56319;48.920;2.332;2023-03-14T06:55:11;0.00;0.00;0.00
69205;PMS7003;56319;48.920;2.332;2023-03-14T06:57:36;0.75;0.00;0.00
69205;PMS7003;56319;48.920;2.332;2023-03-14T07:00:03;1.00;0.00;0.00
69205;PMS7003;56319;48.920;2.332;2023-03-14T07:02:29;0.00;0.00;0.00
69205;PMS7003;56319;48.920;2.332;2023-03-14T07:04:55;0.25;0.25;0.00
69205;PMS7003;56319;48.920;2.332;2023-03-14T07:07:20;0.00;0.00;0.00
69205;PMS7003;56319;48.920;2.332;2023-03-14T07:09:46;0.00;0.00;0.00
69205;PMS7003;56319;48.920;2.332;2023-03-14T07:12:12;1.50;1.00;0.75
69205;PMS7003;56319;48.920;2.332;2023-03-14T07:14:37;0.00;0.00;0.00
69205;PMS7003;56319;48.920;2.332;2023-03-14T07:17:03;2.00;0.00;0.00
69205;PMS7003;56319;48.920;2.332;2023-03-14T07:19:28;0.00;0.00;0.00
69205;PMS7003;56319;48.920;2.332;2023-03-14T07:21:54;0.00;0.00;0.00
69205;PMS7003;56319;48.920;2.332;2023-03-14T07:24:19;1.50;0.75;0.00
69205;PMS7003;56319;48.920;2.332;2023-03-14T07:26:45;1.00;1.00;0.50
69205;PMS7003;56319;48.920;2.332;2023-03-14T07:29:10;4.25;1.00;1.00
69205;PMS7003;56319;48.920;2.332;2023-03-14T07:31:36;2.00;1.00;1.00
69205;PMS7003;56319;48.920;2.332;2023-03-14T07:34:01;0.50;0.50;0.00
69205;PMS7003;56319;48.920;2.332;2023-03-14T07:36:27;1.00;1.00;1.00
69205;PMS7003;56319;48.920;2.332;2023-03-14T07:38:52;1.25;1.25;1.00
69205;PMS7003;56319;48.920;2.332;2023-03-14T07:41:18;4.75;1.00;1.00
69205;PMS7003;56319;48.920;2.332;2023-03-14T07:43:43;1.50;1.25;1.00
69205;PMS7003;56319;48.920;2.332;2023-03-14T07:46:09;1.00;1.00;1.00
69205;PMS7003;56319;48.920;2.332;2023-03-14T07:48:34;0.00;0.00;0.00
69205;PMS7003;56319;48.920;2.332;2023-03-14T07:51:00;2.00;1.25;1.00
69205;PMS7003;56319;48.920;2.332;2023-03-14T07:53:25;1.00;1.00;1.00
69205;PMS7003;56319;48.920;2.332;2023-03-14T07:55:52;1.00;1.00;0.00
69205;PMS7003;56319;48.920;2.332;2023-03-14T07:58:18;1.75;0.25;0.00
69205;PMS7003;56319;48.920;2.332;2023-03-14T08:00:46;1.25;1.25;1.25
69205;PMS7003;56319;48.920;2.332;2023-03-14T08:03:12;1.25;1.25;1.00
69205;PMS7003;56319;48.920;2.332;2023-03-14T08:05:38;1.50;0.00;0.00
69205;PMS7003;56319;48.920;2.332;2023-03-14T08:08:04;2.00;1.00;0.50
69205;PMS7003;56319;48.920;2.332;2023-03-14T08:10:30;1.25;0.00;0.00
69205;PMS7003;56319;48.920;2.332;2023-03-14T08:12:57;1.00;0.25;0.00
69205;PMS7003;56319;48.920;2.332;2023-03-14T08:15:25;1.25;1.25;0.75
69205;PMS7003;56319;48.920;2.332;2023-03-14T08:17:53;1.00;1.00;0.25
69205;PMS7003;56319;48.920;2.332;2023-03-14T08:20:20;3.50;3.00;2.00
69205;PMS7003;56319;48.920;2.332;2023-03-14T08:22:47;4.75;1.75;1.25
69205;PMS7003;56319;48.920;2.332;2023-03-14T08:25:13;2.00;1.00;1.00
69205;PMS7003;56319;48.920;2.332;2023-03-14T08:27:39;3.00;1.00;1.00
69205;PMS7003;56319;48.920;2.332;2023-03-14T08:30:06;1.25;1.00;1.00
69205;PMS7003;56319;48.920;2.332;2023-03-14T08:32:35;2.00;1.75;1.00
69205;PMS7003;56319;48.920;2.332;2023-03-14T08:35:00;3.00;2.00;1.00
69205;PMS7003;56319;48.920;2.332;2023-03-14T08:37:26;1.75;1.00;0.00
69205;PMS7003;56319;48.920;2.332;2023-03-14T08:39:52;2.50;1.75;0.75
69205;PMS7003;56319;48.920;2.332;2023-03-14T08:42:18;3.00;2.00;1.00
69205;PMS7003;56319;48.920;2.332;2023-03-14T08:44:44;2.25;1.25;1.00
69205;PMS7003;56319;48.920;2.332;2023-03-14T08:47:10;3.00;2.00;1.00
69205;PMS7003;56319;48.920;2.332;2023-03-14T08:49:36;2.00;0.25;0.00
69205;PMS7003;56319;48.920;2.332;2023-03-14T08:52:02;2.00;2.00;1.00
69205;PMS7003;56319;48.920;2.332;2023-03-14T08:54:29;2.00;2.00;1.00
69205;PMS7003;56319;48.920;2.332;2023-03-14T08:56:54;1.00;1.00;1.00
69205;PMS7003;56319;48.920;2.332;2023-03-14T08:59:20;2.00;1.00;1.00
69205;PMS7003;56319;48.920;2.332;2023-03-14T09:01:45;3.25;0.00;0.00
69205;PMS7003;56319;48.920;2.332;2023-03-14T09:04:11;0.75;0.75;0.25
69205;PMS7003;56319;48.920;2.332;2023-03-14T09:06:36;5.25;1.50;1.00
69205;PMS7003;56319;48.920;2.332;2023-03-14T09:09:02;1.00;1.00;1.00
69205;PMS7003;56319;48.920;2.332;2023-03-14T09:11:28;4.50;0.50;0.00
69205;PMS7003;56319;48.920;2.332;2023-03-14T09:13:54;3.00;0.50;0.00
69205;PMS7003;56319;48.920;2.332;2023-03-14T09:16:19;1.00;1.00;1.00
69205;PMS7003;56319;48.920;2.332;2023-03-14T09:18:45;1.25;1.25;1.00
69205;PMS7003;56319;48.920;2.332;2023-03-14T09:21:10;1.00;1.00;1.00
69205;PMS7003;56319;48.920;2.332;2023-03-14T09:23:36;3.00;1.00;1.00
69205;PMS7003;56319;48.920;2.332;2023-03-14T09:26:01;0.25;0.00;0.00
69205;PMS7003;56319;48.920;2.332;2023-03-14T09:28:27;0.75;0.75;0.00
69205;PMS7003;56319;48.920;2.332;2023-03-14T09:30:53;0.75;0.75;0.25
69205;PMS7003;56319;48.920;2.332;2023-03-14T09:33:19;0.50;0.00;0.00
69205;PMS7003;56319;48.920;2.332;2023-03-14T09:35:45;1.00;1.00;1.00
69205;PMS7003;56319;48.920;2.332;2023-03-14T09:38:11;2.00;1.00;0.50
69205;PMS7003;56319;48.920;2.332;2023-03-14T09:40:37;2.50;1.25;1.00
69205;PMS7003;56319;48.920;2.332;2023-03-14T09:43:03;2.50;1.00;0.00
69205;PMS7003;56319;48.920;2.332;2023-03-14T09:45:31;1.00;1.00;1.00
69205;PMS7003;56319;48.920;2.332;2023-03-14T09:48:02;2.50;1.25;1.00
69205;PMS7003;56319;48.920;2.332;2023-03-14T09:50:30;1.00;1.00;0.00
69205;PMS7003;56319;48.920;2.332;2023-03-14T09:53:04;3.75;1.00;1.00
69205;PMS7003;56319;48.920;2.332;2023-03-14T09:55:35;1.50;1.50;1.00
69205;PMS7003;56319;48.920;2.332;2023-03-14T09:58:02;3.00;0.75;0.50
69205;PMS7003;56319;48.920;2.332;2023-03-14T10:00:35;0.25;0.25;0.25
69205;PMS7003;56319;48.920;2.332;2023-03-14T10:05:49;1.75;1.00;0.00
69205;PMS7003;56319;48.920;2.332;2023-03-14T10:08:15;3.00;2.00;1.00
69205;PMS7003;56319;48.920;2.332;2023-03-14T10:10:41;1.25;1.00;0.25
69205;PMS7003;56319;48.920;2.332;2023-03-14T10:13:12;2.25;1.00;1.00
69205;PMS7003;56319;48.920;2.332;2023-03-14T10:15:40;0.25;0.00;0.00
69205;PMS7003;56319;48.920;2.332;2023-03-14T10:26:53;1.25;1.00;1.00
69205;PMS7003;56319;48.920;2.332;2023-03-14T10:29:20;2.00;1.00;0.00
69205;PMS7003;56319;48.920;2.332;2023-03-14T10:31:48;1.50;0.75;0.00
69205;PMS7003;56319;48.920;2.332;2023-03-14T10:34:17;2.00;0.00;0.00
69205;PMS7003;56319;48.920;2.332;2023-03-14T10:36:51;1.00;1.00;1.00
69205;PMS7003;56319;48.920;2.332;2023-03-14T10:39:33;3.00;1.00;1.00
69205;PMS7003;56319;48.920;2.332;2023-03-14T10:42:11;6.75;2.00;1.00
69205;PMS7003;56319;48.920;2.332;2023-03-14T10:44:40;8.75;1.00;0.25
69205;PMS7003;56319;48.920;2.332;2023-03-14T10:47:12;1.25;1.25;0.25
69205;PMS7003;56319;48.920;2.332;2023-03-14T10:49:47;0.75;0.75;0.50
69205;PMS7003;56319;48.920;2.332;2023-03-14T10:54:40;4.25;1.00;0.00
69205;PMS7003;56319;48.920;2.332;2023-03-14T10:57:05;2.00;0.00;0.00
69205;PMS7003;56319;48.920;2.332;2023-03-14T10:59:36;3.00;1.00;0.00
69205;PMS7003;56319;48.920;2.332;2023-03-14T11:04:59;2.00;0.00;0.00
69205;PMS7003;56319;48.920;2.332;2023-03-14T11:07:39;2.50;1.00;0.00
69205;PMS7003;56319;48.920;2.332;2023-03-14T11:16:08;1.75;1.75;0.75
69205;PMS7003;56319;48.920;2.332;2023-03-14T11:18:59;0.50;0.50;0.00
69205;PMS7003;56319;48.920;2.332;2023-03-14T11:27:34;1.00;1.00;0.75
69205;PMS7003;56319;48.920;2.332;2023-03-14T11:33:15;0.00;0.00;0.00
69205;PMS7003;56319;48.920;2.332;2023-03-14T11:35:49;1.00;1.00;0.75
69205;PMS7003;56319;48.920;2.332;2023-03-14T11:44:04;0.00;0.00;0.00
69205;PMS7003;56319;48.920;2.332;2023-03-14T11:46:43;1.50;0.00;0.00
69205;PMS7003;56319;48.920;2.332;2023-03-14T11:49:35;3.00;0.00;0.00
69205;PMS7003;56319;48.920;2.332;2023-03-14T11:52:06;0.00;0.00;0.00
69205;PMS7003;56319;48.920;2.332;2023-03-14T11:54:43;1.25;0.00;0.00
69205;PMS7003;56319;48.920;2.332;2023-03-14T11:57:15;3.25;0.00;0.00
69205;PMS7003;56319;48.920;2.332;2023-03-14T12:00:04;1.25;0.00;0.00
69205;PMS7003;56319;48.920;2.332;2023-03-14T12:03:09;0.00;0.00;0.00
69205;PMS7003;56319;48.920;2.332;2023-03-14T12:08:25;0.25;0.00;0.00
69205;PMS7003;56319;48.920;2.332;2023-03-14T12:10:59;0.00;0.00;0.00
69205;PMS7003;56319;48.920;2.332;2023-03-14T12:13:28;1.75;1.00;0.00
69205;PMS7003;56319;48.920;2.332;2023-03-14T12:15:58;0.00;0.00;0.00
69205;PMS7003;56319;48.920;2.332;2023-03-14T12:21:00;1.25;0.00;0.00
69205;PMS7003;56319;48.920;2.332;2023-03-14T12:23:28;0.50;0.50;0.00
69205;PMS7003;56319;48.920;2.332;2023-03-14T12:28:49;1.00;1.00;0.75
69205;PMS7003;56319;48.920;2.332;2023-03-14T12:36:56;1.75;1.75;1.75
69205;PMS7003;56319;48.920;2.332;2023-03-14T12:39:33;2.50;1.00;1.00
69205;PMS7003;56319;48.920;2.332;2023-03-14T12:42:11;2.00;2.00;2.00
69205;PMS7003;56319;48.920;2.332;2023-03-14T12:47:51;0.75;0.75;0.50
69205;PMS7003;56319;48.920;2.332;2023-03-14T12:50:29;3.00;1.50;1.00
69205;PMS7003;56319;48.920;2.332;2023-03-14T12:53:05;1.25;1.25;1.00
69205;PMS7003;56319;48.920;2.332;2023-03-14T12:59:04;2.00;1.00;1.00
69205;PMS7003;56319;48.920;2.332;2023-03-14T13:01:54;4.00;1.00;0.75
69205;PMS7003;56319;48.920;2.332;2023-03-14T13:04:27;2.50;0.25;0.00
69205;PMS7003;56319;48.920;2.332;2023-03-14T13:06:57;2.25;1.00;0.25
69205;PMS7003;56319;48.920;2.332;2023-03-14T13:12:17;2.00;1.00;1.00
69205;PMS7003;56319;48.920;2.332;2023-03-14T13:14:48;1.25;1.25;0.75
69205;PMS7003;56319;48.920;2.332;2023-03-14T13:17:20;1.25;1.00;1.00
69205;PMS7003;56319;48.920;2.332;2023-03-14T13:19:52;3.00;1.00;0.00
69205;PMS7003;56319;48.920;2.332;2023-03-14T13:22:24;1.00;1.00;1.00
69205;PMS7003;56319;48.920;2.332;2023-03-14T13:27:37;1.00;1.00;0.25
69205;PMS7003;56319;48.920;2.332;2023-03-14T13:30:13;2.50;1.00;1.00
69205;PMS7003;56319;48.920;2.332;2023-03-14T13:32:42;1.25;1.25;1.00
69205;PMS7003;56319;48.920;2.332;2023-03-14T13:38:03;1.00;1.00;0.75
69205;PMS7003;56319;48.920;2.332;2023-03-14T13:40:31;2.00;1.00;0.50
69205;PMS7003;56319;48.920;2.332;2023-03-14T13:43:01;3.00;1.00;0.50
69205;PMS7003;56319;48.920;2.332;2023-03-14T13:45:29;3.00;1.00;1.00
69205;PMS7003;56319;48.920;2.332;2023-03-14T13:47:55;0.50;0.50;0.00
69205;PMS7003;56319;48.920;2.332;2023-03-14T13:50:21;3.00;1.75;0.00
69205;PMS7003;56319;48.920;2.332;2023-03-14T13:52:46;1.50;1.00;0.00
69205;PMS7003;56319;48.920;2.332;2023-03-14T13:55:15;2.00;2.00;1.00
69205;PMS7003;56319;48.920;2.332;2023-03-14T13:57:44;3.00;2.00;1.00
69205;PMS7003;56319;48.920;2.332;2023-03-14T14:00:17;1.00;1.00;0.00
69205;PMS7003;56319;48.920;2.332;2023-03-14T14:02:45;0.25;0.25;0.00
69205;PMS7003;56319;48.920;2.332;2023-03-14T14:05:12;3.00;0.75;0.75
69205;PMS7003;56319;48.920;2.332;2023-03-14T14:07:38;1.00;0.00;0.00
69205;PMS7003;56319;48.920;2.332;2023-03-14T14:10:05;1.50;1.00;0.75
69205;PMS7003;56319;48.920;2.332;2023-03-14T14:12:33;2.00;1.00;1.00
69205;PMS7003;56319;48.920;2.332;2023-03-14T14:15:04;2.00;0.25;0.00
69205;PMS7003;56319;48.920;2.332;2023-03-14T14:17:36;2.00;1.25;1.00
69205;PMS7003;56319;48.920;2.332;2023-03-14T14:20:06;2.00;1.00;1.00
69205;PMS7003;56319;48.920;2.332;2023-03-14T14:22:36;1.00;1.00;0.50
69205;PMS7003;56319;48.920;2.332;2023-03-14T14:25:02;1.00;1.00;1.00
69205;PMS7003;56319;48.920;2.332;2023-03-14T14:30:31;1.50;1.00;0.25
69205;PMS7003;56319;48.920;2.332;2023-03-14T14:38:39;2.00;2.00;1.00
69205;PMS7003;56319;48.920;2.332;2023-03-14T14:41:05;2.00;1.00;0.50
69205;PMS7003;56319;48.920;2.332;2023-03-14T14:43:30;3.75;2.00;0.75
69205;PMS7003;56319;48.920;2.332;2023-03-14T14:46:01;1.00;0.00;0.00
69205;PMS7003;56319;48.920;2.332;2023-03-14T14:48:35;2.00;1.00;0.00
69205;PMS7003;56319;48.920;2.332;2023-03-14T14:51:03;2.00;1.00;1.00
69205;PMS7003;56319;48.920;2.332;2023-03-14T14:56:27;3.00;1.25;1.00
69205;PMS7003;56319;48.920;2.332;2023-03-14T14:58:57;2.00;1.00;0.50
69205;PMS7003;56319;48.920;2.332;2023-03-14T15:01:26;5.75;3.00;2.00
69205;PMS7003;56319;48.920;2.332;2023-03-14T15:03:58;6.25;2.25;1.25
69205;PMS7003;56319;48.920;2.332;2023-03-14T15:06:24;2.50;0.75;0.50
69205;PMS7003;56319;48.920;2.332;2023-03-14T15:08:53;3.00;1.50;1.00
69205;PMS7003;56319;48.920;2.332;2023-03-14T15:11:21;7.00;2.00;1.00
69205;PMS7003;56319;48.920;2.332;2023-03-14T15:13:49;4.25;1.00;1.00
69205;PMS7003;56319;48.920;2.332;2023-03-14T15:16:17;2.50;1.25;1.00
69205;PMS7003;56319;48.920;2.332;2023-03-14T15:18:47;3.75;3.50;2.00
69205;PMS7003;56319;48.920;2.332;2023-03-14T15:21:15;2.25;1.00;1.00
69205;PMS7003;56319;48.920;2.332;2023-03-14T15:23:40;6.25;3.75;1.00
69205;PMS7003;56319;48.920;2.332;2023-03-14T15:28:52;8.25;3.75;2.50
69205;PMS7003;56319;48.920;2.332;2023-03-14T15:31:19;4.50;2.25;2.00
69205;PMS7003;56319;48.920;2.332;2023-03-14T15:33:46;5.75;2.50;1.00
69205;PMS7003;56319;48.920;2.332;2023-03-14T15:36:19;3.00;1.50;0.75
69205;PMS7003;56319;48.920;2.332;2023-03-14T15:38:50;2.00;1.00;0.50
69205;PMS7003;56319;48.920;2.332;2023-03-14T15:41:17;1.00;1.00;1.00
69205;PMS7003;56319;48.920;2.332;2023-03-14T15:43:43;2.00;1.00;0.25
69205;PMS7003;56319;48.920;2.332;2023-03-14T15:46:10;1.25;1.00;1.00
69205;PMS7003;56319;48.920;2.332;2023-03-14T15:48:39;4.00;1.50;1.00
69205;PMS7003;56319;48.920;2.332;2023-03-14T15:51:05;2.75;1.00;0.75
69205;PMS7003;56319;48.920;2.332;2023-03-14T15:53:31;8.25;3.00;1.50
69205;PMS7003;56319;48.920;2.332;2023-03-14T15:55:57;7.75;3.50;1.50
69205;PMS7003;56319;48.920;2.332;2023-03-14T15:58:23;0.75;0.50;0.00